Spring Valley, Nevada
Current Conditions -  °F | °C
As of 9:56 AM on Friday 31 Oct 2014 (Local Time) from KLAS Reporting Station
Few Clouds Few Clouds  
Wind Chill: 72°   Ceiling: Unl
Heat Index: 72°   Visibility: 10mi
Dew Point: 31°   Wind: 3mph
Humidity: 22%   Direction: 180°S
Pressure: 29.9"   Gusts: NA
Location:  36.11°N, 115.24°W
Report Text: KLAS 311656Z 18003KT 10SM FEW180 22/M01 A2990 RMK AO2 SLP108 T02221006
Loading
Personal Weather Stations






























Interactive Weather Map
Tropical Storm Tracking
New forecast layout! Learn more

10-Day Weather Forecast

Advertisements
Track Severe Weather on mobile